< < Back
Terminal Aerodrome Forecast


Current Version              Previous Versions:   1  2  3  4  5  6  7  8  9  

Terminal Aerodrome Forecast

246
FTUS42 KFFC 061729
TAFFTY
TAF
KFTY 061729Z 0618/0718 34015G25KT P6SM SCT060
     FM070000 32010G18KT P6SM FEW070
     FM070300 32004KT P6SM SKC
     FM071500 30010KT P6SM FEW045=

Latest METAR

826
SAUS70 KWBC 070000 RRI
MTRFTY
METAR KFTY 062353Z 32007KT 10SM CLR 19/04 A2991 RMK AO2 SLP123 T01940044
10211 20189 53002


USA.gov is the U.S. government's official web portal to all federal, state and local government web resources and services.